Time;durP1;ratioP1;P1;durP2;ratioP2;P2;SDS_P1;SDS_P2;PMS_P1;PMS_P2;Temp;Humidity;BMP_temperature;BMP_pressure;BME280_temperature;BME280_humidity;BME280_pressure;Samples;Min_cycle;Max_cycle;Signal;HPM_P1;HPM_P2
2021/05/27 00:01:32;;;;;;;358.50;100.00;;;;;;;;;;5065691;28;20512;-80
2021/05/27 00:04:00;;;;;;;7.97;4.47;;;;;;;;;;5063230;28;20218;-83
2021/05/27 00:06:28;;;;;;;6.60;4.17;;;;;;;;;;5087909;28;20215;-81
2021/05/27 00:08:58;;;;;;;10.03;4.00;;;;;;;;;;5088158;28;20574;-82
2021/05/27 00:11:26;;;;;;;7.73;3.90;;;;;;;;;;5080657;28;20505;-82
2021/05/27 00:13:54;;;;;;;4.73;3.37;;;;;;;;;;5084526;28;20205;-82
2021/05/27 00:16:22;;;;;;;5.67;3.40;;;;;;;;;;5073449;28;20691;-82
2021/05/27 00:18:52;;;;;;;64.53;14.33;;;;;;;;;;5067085;28;20202;-81
2021/05/27 00:21:21;;;;;;;6.90;2.63;;;;;;;;;;5065051;28;20206;-80
2021/05/27 00:23:49;;;;;;;4.23;2.90;;;;;;;;;;5084387;28;20206;-79
2021/05/27 00:26:17;;;;;;;4.10;3.23;;;;;;;;;;5091690;28;20202;-80
2021/05/27 00:28:49;;;;;;;4.97;2.90;;;;;;;;;;5083467;28;20206;-80
2021/05/27 00:31:18;;;;;;;5.57;3.00;;;;;;;;;;5070610;28;20198;-80
2021/05/27 00:33:46;;;;;;;5.90;3.13;;;;;;;;;;5062942;28;20203;-80
2021/05/27 00:36:15;;;;;;;6.93;2.63;;;;;;;;;;5058612;28;20686;-81
2021/05/27 00:38:43;;;;;;;8.87;3.00;;;;;;;;;;5075604;28;20213;-82
2021/05/27 00:41:11;;;;;;;2.80;2.47;;;;;;;;;;5061915;28;20206;-81
2021/05/27 00:43:39;;;;;;;3.33;2.60;;;;;;;;;;5071211;28;20687;-81
2021/05/27 00:46:07;;;;;;;1.90;1.70;;;;;;;;;;5077882;28;20272;-83
2021/05/27 00:51:22;;;;;;;1.47;1.30;;;;;;;;;;5060634;28;20208;-83
2021/05/27 00:53:50;;;;;;;0.77;0.77;;;;;;;;;;5071795;28;20203;-82
2021/05/27 00:56:18;;;;;;;0.83;0.70;;;;;;;;;;5076022;28;20656;-81
2021/05/27 00:58:46;;;;;;;1.17;0.70;;;;;;;;;;5075274;28;20531;-81
2021/05/27 01:01:15;;;;;;;1.00;0.60;;;;;;;;;;5080916;28;20213;-80
2021/05/27 01:03:43;;;;;;;1.13;0.67;;;;;;;;;;5065415;28;20210;-81
2021/05/27 01:06:12;;;;;;;3.67;0.77;;;;;;;;;;5062614;28;20218;-80
2021/05/27 01:08:40;;;;;;;0.57;0.57;;;;;;;;;;5075840;28;20571;-79
2021/05/27 01:11:09;;;;;;;24.27;6.97;;;;;;;;;;5058542;28;20219;-81
2021/05/27 01:13:37;;;;;;;0.60;0.50;;;;;;;;;;5055216;28;20207;-80
2021/05/27 01:16:05;;;;;;;1.57;0.60;;;;;;;;;;5050822;28;20195;-80
2021/05/27 01:18:33;;;;;;;1.30;0.70;;;;;;;;;;5064246;28;20207;-83
2021/05/27 01:21:02;;;;;;;0.60;0.60;;;;;;;;;;5080800;28;20280;-79
2021/05/27 01:23:32;;;;;;;1.07;0.47;;;;;;;;;;5066712;28;20365;-80
2021/05/27 01:26:01;;;;;;;0.50;0.50;;;;;;;;;;5071628;28;20679;-80
2021/05/27 01:28:33;;;;;;;0.50;0.50;;;;;;;;;;5076669;28;20202;-81
2021/05/27 01:31:02;;;;;;;225.20;43.03;;;;;;;;;;5063645;28;20217;-81
2021/05/27 01:33:33;;;;;;;0.40;0.40;;;;;;;;;;5076154;28;20199;-82
2021/05/27 01:36:04;;;;;;;0.50;0.50;;;;;;;;;;5082154;28;20210;-80
2021/05/27 01:38:33;;;;;;;0.47;0.47;;;;;;;;;;5059217;28;20210;-80
2021/05/27 01:41:03;;;;;;;0.97;0.70;;;;;;;;;;5067865;28;20205;-80
2021/05/27 01:43:33;;;;;;;268.67;47.43;;;;;;;;;;5073776;28;20194;-79
2021/05/27 01:46:01;;;;;;;0.50;0.50;;;;;;;;;;5091175;28;20283;-79
2021/05/27 01:48:29;;;;;;;0.70;0.70;;;;;;;;;;5063397;28;20634;-80
2021/05/27 01:50:58;;;;;;;4.63;1.10;;;;;;;;;;5080002;28;20222;-80
2021/05/27 01:53:27;;;;;;;0.50;0.50;;;;;;;;;;5071988;28;20699;-80
2021/05/27 01:56:00;;;;;;;0.80;0.60;;;;;;;;;;5074462;28;20285;-82
2021/05/27 01:58:29;;;;;;;0.50;0.50;;;;;;;;;;5082548;28;20202;-84
2021/05/27 02:00:57;;;;;;;0.60;0.60;;;;;;;;;;5089732;28;20593;-83
2021/05/27 02:03:30;;;;;;;0.70;0.50;;;;;;;;;;5070496;28;20671;-81
2021/05/27 02:06:11;;;;;;;0.93;0.60;;;;;;;;;;5084397;28;20575;-83
2021/05/27 02:09:07;;;;;;;1.33;0.70;;;;;;;;;;5074619;28;20708;-83
2021/05/27 02:11:30;;;;;;;0.67;0.60;;;;;;;;;;5083956;28;20217;-82
2021/05/27 02:14:01;;;;;;;0.47;0.43;;;;;;;;;;5068559;28;20210;-83
2021/05/27 02:16:29;;;;;;;0.50;0.50;;;;;;;;;;5093353;28;20209;-80
2021/05/27 02:18:57;;;;;;;0.93;0.50;;;;;;;;;;5073398;28;20233;-81
2021/05/27 02:21:25;;;;;;;0.70;0.60;;;;;;;;;;5078978;28;20213;-81
2021/05/27 02:23:55;;;;;;;281.23;57.07;;;;;;;;;;5076828;28;21120;-82
2021/05/27 02:26:26;;;;;;;0.63;0.60;;;;;;;;;;5064247;28;20219;-82
2021/05/27 02:29:04;;;;;;;0.70;0.60;;;;;;;;;;5073179;28;20226;-80
2021/05/27 02:31:37;;;;;;;1.73;0.60;;;;;;;;;;5067780;28;20198;-80
2021/05/27 02:34:06;;;;;;;0.50;0.50;;;;;;;;;;5083980;28;20206;-80
2021/05/27 02:36:37;;;;;;;1.63;0.60;;;;;;;;;;5060601;28;20206;-79
2021/05/27 02:39:07;;;;;;;0.67;0.60;;;;;;;;;;5095707;28;20217;-79
2021/05/27 02:41:42;;;;;;;1.10;0.60;;;;;;;;;;5051210;28;20221;-79
2021/05/27 02:44:16;;;;;;;0.40;0.40;;;;;;;;;;5075520;28;20400;-79
2021/05/27 02:46:50;;;;;;;3.40;0.60;;;;;;;;;;5066356;28;20599;-80
2021/05/27 02:49:18;;;;;;;0.90;0.60;;;;;;;;;;5064210;28;20226;-80
2021/05/27 02:51:48;;;;;;;0.97;0.70;;;;;;;;;;5055178;28;20356;-80
2021/05/27 02:54:16;;;;;;;0.67;0.60;;;;;;;;;;5058499;28;20211;-80
2021/05/27 02:56:46;;;;;;;1.50;0.60;;;;;;;;;;5050981;28;20563;-79
2021/05/27 02:59:20;;;;;;;0.97;0.70;;;;;;;;;;5074826;28;20221;-81
2021/05/27 03:01:51;;;;;;;2.17;0.63;;;;;;;;;;5081485;28;20202;-79
2021/05/27 03:04:19;;;;;;;0.60;0.60;;;;;;;;;;5085652;28;20210;-80
2021/05/27 03:06:47;;;;;;;0.63;0.60;;;;;;;;;;5065886;28;20225;-80
2021/05/27 03:09:17;;;;;;;1.27;0.70;;;;;;;;;;5082213;28;20623;-79
2021/05/27 03:11:45;;;;;;;1.80;0.60;;;;;;;;;;5065339;28;20213;-79
2021/05/27 03:14:15;;;;;;;0.77;0.73;;;;;;;;;;5076669;28;20206;-82
2021/05/27 03:16:48;;;;;;;0.63;0.60;;;;;;;;;;5067231;28;20657;-80
2021/05/27 03:19:17;;;;;;;1.10;0.60;;;;;;;;;;5056131;28;20230;-80
2021/05/27 03:21:47;;;;;;;0.60;0.60;;;;;;;;;;5052842;28;20199;-80
2021/05/27 03:24:16;;;;;;;1.00;0.60;;;;;;;;;;5085959;28;20260;-80
2021/05/27 03:26:46;;;;;;;0.87;0.50;;;;;;;;;;5069715;28;20211;-80
2021/05/27 03:29:14;;;;;;;0.53;0.53;;;;;;;;;;5065782;28;20230;-82
2021/05/27 03:31:45;;;;;;;1.07;0.67;;;;;;;;;;5067251;28;20576;-79
2021/05/27 03:34:14;;;;;;;0.83;0.60;;;;;;;;;;5074417;28;20211;-81
2021/05/27 03:36:43;;;;;;;0.50;0.50;;;;;;;;;;5061845;28;20225;-79
2021/05/27 03:39:15;;;;;;;0.57;0.57;;;;;;;;;;5083587;28;20628;-80
2021/05/27 03:41:43;;;;;;;0.60;0.60;;;;;;;;;;5072514;28;20209;-80
2021/05/27 03:44:12;;;;;;;0.60;0.50;;;;;;;;;;5071303;28;20206;-79
2021/05/27 03:46:44;;;;;;;1.27;0.70;;;;;;;;;;5072871;28;20734;-81
2021/05/27 03:49:12;;;;;;;1.80;0.80;;;;;;;;;;5069763;28;20218;-79
2021/05/27 03:51:42;;;;;;;1.80;0.60;;;;;;;;;;5062766;28;20203;-79
2021/05/27 03:54:11;;;;;;;1.30;0.60;;;;;;;;;;5048202;28;20225;-79
2021/05/27 03:56:39;;;;;;;0.97;0.70;;;;;;;;;;5059516;28;20215;-79
2021/05/27 04:02:18;;;;;;;0.90;0.60;;;;;;;;;;5059785;28;20207;-79
2021/05/27 04:07:56;;;;;;;0.70;0.70;;;;;;;;;;5080333;28;20225;-81
2021/05/27 04:10:26;;;;;;;1.60;0.80;;;;;;;;;;5080025;28;21592;-81
2021/05/27 04:12:54;;;;;;;0.70;0.60;;;;;;;;;;5081964;28;20225;-82
2021/05/27 04:15:32;;;;;;;0.70;0.70;;;;;;;;;;5071293;28;20216;-81
2021/05/27 04:18:02;;;;;;;0.97;0.73;;;;;;;;;;5091214;28;20206;-81
2021/05/27 04:20:32;;;;;;;1.60;0.80;;;;;;;;;;5093094;28;20226;-80
2021/05/27 04:23:02;;;;;;;0.80;0.80;;;;;;;;;;5089173;28;20241;-81
2021/05/27 04:25:30;;;;;;;2.20;0.80;;;;;;;;;;5073149;28;20206;-81
2021/05/27 04:28:00;;;;;;;2.87;0.70;;;;;;;;;;5056871;28;20225;-81
2021/05/27 04:30:29;;;;;;;0.83;0.60;;;;;;;;;;5073205;28;20222;-82
2021/05/27 04:33:01;;;;;;;1.93;0.87;;;;;;;;;;5085309;28;20206;-81
2021/05/27 04:35:32;;;;;;;0.90;0.80;;;;;;;;;;5060485;28;20217;-81
2021/05/27 04:38:04;;;;;;;4.13;1.07;;;;;;;;;;5055322;28;20258;-80
2021/05/27 04:40:33;;;;;;;1.10;0.70;;;;;;;;;;5083255;28;20222;-79
2021/05/27 04:43:01;;;;;;;0.80;0.80;;;;;;;;;;5076824;28;20218;-79
2021/05/27 04:45:30;;;;;;;1.07;0.87;;;;;;;;;;5084223;28;20206;-79
2021/05/27 04:47:58;;;;;;;0.60;0.60;;;;;;;;;;5060229;28;20231;-80
2021/05/27 04:50:26;;;;;;;221.87;46.67;;;;;;;;;;5078516;28;20230;-79
2021/05/27 04:52:54;;;;;;;0.97;0.80;;;;;;;;;;5072618;28;20669;-81
2021/05/27 04:55:23;;;;;;;1.03;0.63;;;;;;;;;;5087007;28;20214;-79
2021/05/27 04:57:51;;;;;;;0.70;0.70;;;;;;;;;;5081862;28;20202;-79
2021/05/27 05:00:21;;;;;;;1.13;0.80;;;;;;;;;;5088919;28;20214;-80
2021/05/27 05:02:51;;;;;;;1.57;0.90;;;;;;;;;;5060486;28;20202;-80
2021/05/27 05:05:20;;;;;;;1.13;0.80;;;;;;;;;;5082009;28;20222;-80
2021/05/27 05:07:49;;;;;;;0.80;0.70;;;;;;;;;;5066125;28;20221;-80
2021/05/27 05:10:18;;;;;;;131.67;29.47;;;;;;;;;;5075783;28;20222;-79
2021/05/27 05:12:49;;;;;;;260.33;49.10;;;;;;;;;;5059979;28;20206;-79
2021/05/27 05:15:19;;;;;;;246.77;46.87;;;;;;;;;;5075619;28;20209;-79
2021/05/27 05:17:50;;;;;;;78.83;19.13;;;;;;;;;;5078857;28;20202;-79
2021/05/27 05:20:20;;;;;;;0.60;0.60;;;;;;;;;;5086592;28;20226;-79
2021/05/27 05:22:48;;;;;;;1.13;0.60;;;;;;;;;;5078955;28;20199;-80
2021/05/27 05:25:17;;;;;;;217.37;41.00;;;;;;;;;;5079766;28;20209;-80
2021/05/27 05:27:45;;;;;;;272.43;54.67;;;;;;;;;;5082897;28;20229;-80
2021/05/27 05:30:16;;;;;;;0.70;0.70;;;;;;;;;;5079291;28;20594;-80
2021/05/27 05:32:45;;;;;;;1.00;0.87;;;;;;;;;;5080082;28;20217;-80
2021/05/27 05:35:14;;;;;;;0.80;0.80;;;;;;;;;;5073343;28;20199;-80
2021/05/27 05:37:42;;;;;;;1.07;0.97;;;;;;;;;;5085017;28;20210;-80
2021/05/27 05:40:12;;;;;;;1.63;0.80;;;;;;;;;;5087665;28;20225;-81
2021/05/27 05:42:41;;;;;;;0.60;0.60;;;;;;;;;;5088302;28;20199;-80
2021/05/27 05:45:11;;;;;;;1.00;0.90;;;;;;;;;;5080240;28;20226;-81
2021/05/27 05:47:40;;;;;;;0.60;0.60;;;;;;;;;;5078712;28;20604;-80
2021/05/27 05:50:09;;;;;;;1.37;0.90;;;;;;;;;;5072489;28;20234;-80
2021/05/27 05:52:37;;;;;;;0.80;0.80;;;;;;;;;;5078328;28;20203;-82
2021/05/27 05:55:07;;;;;;;0.83;0.70;;;;;;;;;;5089085;28;20652;-81
2021/05/27 05:57:35;;;;;;;0.77;0.77;;;;;;;;;;5090307;28;20194;-84
2021/05/27 06:00:05;;;;;;;0.67;0.67;;;;;;;;;;5068048;28;20227;-81
2021/05/27 06:02:41;;;;;;;1.93;0.90;;;;;;;;;;5079467;28;20276;-81
2021/05/27 06:05:18;;;;;;;1.67;1.00;;;;;;;;;;5070921;28;20201;-81
2021/05/27 06:08:00;;;;;;;1.47;0.80;;;;;;;;;;5092057;28;20291;-82
2021/05/27 06:10:29;;;;;;;3.60;0.87;;;;;;;;;;5068845;28;20602;-86
2021/05/27 06:12:57;;;;;;;1.43;0.97;;;;;;;;;;5080746;28;20203;-86
2021/05/27 06:15:27;;;;;;;0.83;0.83;;;;;;;;;;5093724;28;20203;-81
2021/05/27 06:17:58;;;;;;;0.83;0.63;;;;;;;;;;5066004;28;20286;-81
2021/05/27 06:20:28;;;;;;;0.87;0.77;;;;;;;;;;5088090;28;20230;-81
2021/05/27 06:23:00;;;;;;;1.37;0.97;;;;;;;;;;5092994;28;20206;-83
2021/05/27 06:25:30;;;;;;;1.23;0.90;;;;;;;;;;5092331;28;20383;-81
2021/05/27 06:27:58;;;;;;;2.23;0.80;;;;;;;;;;5063666;28;20241;-82
2021/05/27 06:30:28;;;;;;;1.90;1.10;;;;;;;;;;5064654;28;20238;-82
2021/05/27 06:32:58;;;;;;;0.80;0.80;;;;;;;;;;5069079;28;20206;-82
2021/05/27 06:35:26;;;;;;;1.53;1.10;;;;;;;;;;5068482;28;20655;-83
2021/05/27 06:37:54;;;;;;;1.37;1.17;;;;;;;;;;5090837;28;20590;-82
2021/05/27 06:40:24;;;;;;;1.27;1.17;;;;;;;;;;5067912;28;20688;-82
2021/05/27 06:42:53;;;;;;;1.23;1.00;;;;;;;;;;5087522;28;20215;-86
2021/05/27 06:45:21;;;;;;;4.00;1.20;;;;;;;;;;5098918;28;20229;-82
2021/05/27 06:47:50;;;;;;;1.43;1.10;;;;;;;;;;5066007;28;20238;-86
2021/05/27 06:50:35;;;;;;;1.60;1.30;;;;;;;;;;5068932;28;20225;-84
2021/05/27 06:53:05;;;;;;;1.30;1.20;;;;;;;;;;5099046;28;20202;-86
2021/05/27 06:55:34;;;;;;;1.37;1.07;;;;;;;;;;5088506;28;20567;-83
2021/05/27 06:58:02;;;;;;;1.53;1.10;;;;;;;;;;5084839;28;20217;-84
2021/05/27 07:00:31;;;;;;;1.20;1.20;;;;;;;;;;5086797;28;20241;-83
2021/05/27 07:03:00;;;;;;;1.47;1.20;;;;;;;;;;5087434;28;20203;-83
2021/05/27 07:05:30;;;;;;;1.67;1.20;;;;;;;;;;5091372;28;20206;-83
2021/05/27 07:07:59;;;;;;;1.30;1.20;;;;;;;;;;5090600;28;20230;-86
2021/05/27 07:10:29;;;;;;;1.20;1.10;;;;;;;;;;5081072;28;20218;-82
2021/05/27 07:13:00;;;;;;;1.20;1.10;;;;;;;;;;5086958;28;20206;-83
2021/05/27 07:15:29;;;;;;;1.50;1.17;;;;;;;;;;5086067;28;20199;-83
2021/05/27 07:17:57;;;;;;;2.40;1.13;;;;;;;;;;5071971;28;20721;-82
2021/05/27 07:20:27;;;;;;;1.23;1.00;;;;;;;;;;5073300;28;20600;-82
2021/05/27 07:22:56;;;;;;;1.07;1.07;;;;;;;;;;5086346;28;20206;-85
2021/05/27 07:25:26;;;;;;;1.07;0.97;;;;;;;;;;5093235;28;20207;-85
2021/05/27 07:27:56;;;;;;;1.67;1.20;;;;;;;;;;5065641;28;20218;-84
2021/05/27 07:30:26;;;;;;;3.13;1.20;;;;;;;;;;5071113;28;20473;-83
2021/05/27 07:32:55;;;;;;;3.30;1.20;;;;;;;;;;5086692;28;20499;-83
2021/05/27 07:35:25;;;;;;;1.33;0.93;;;;;;;;;;5079934;28;20210;-86
2021/05/27 07:37:53;;;;;;;2.03;1.07;;;;;;;;;;5072108;28;20201;-85
2021/05/27 07:40:22;;;;;;;0.90;0.90;;;;;;;;;;5091168;28;20222;-84
2021/05/27 07:42:52;;;;;;;1.33;0.93;;;;;;;;;;5085556;28;20215;-82
2021/05/27 07:45:21;;;;;;;1.53;0.90;;;;;;;;;;5085151;28;20198;-85
2021/05/27 07:47:49;;;;;;;1.30;1.20;;;;;;;;;;5087734;28;20596;-86
2021/05/27 07:50:20;;;;;;;1.47;0.90;;;;;;;;;;5094724;28;20304;-84
2021/05/27 07:52:49;;;;;;;1.87;1.07;;;;;;;;;;5094136;28;20216;-85
2021/05/27 07:55:17;;;;;;;2.17;1.20;;;;;;;;;;5094145;28;20206;-85
2021/05/27 07:57:46;;;;;;;1.03;0.97;;;;;;;;;;5093857;28;20191;-84
2021/05/27 08:00:15;;;;;;;3.30;1.10;;;;;;;;;;5092721;28;20749;-83
2021/05/27 08:02:43;;;;;;;2.27;1.10;;;;;;;;;;5086417;28;20204;-85
2021/05/27 08:05:13;;;;;;;0.87;0.87;;;;;;;;;;5090380;28;20205;-83
2021/05/27 08:07:45;;;;;;;1.07;0.97;;;;;;;;;;5084406;28;20198;-86
2021/05/27 08:10:13;;;;;;;1.60;1.10;;;;;;;;;;5071031;28;20223;-85
2021/05/27 08:12:42;;;;;;;1.00;0.90;;;;;;;;;;5089566;28;20381;-84
2021/05/27 08:15:14;;;;;;;0.80;0.80;;;;;;;;;;5088277;28;20563;-83
2021/05/27 08:17:42;;;;;;;1.00;1.00;;;;;;;;;;5072897;28;20206;-83
2021/05/27 08:20:11;;;;;;;2.50;1.40;;;;;;;;;;5091398;28;20222;-82
2021/05/27 08:27:14;;;;;;;1.57;1.13;;;;;;;;;;5079165;28;20207;-81
2021/05/27 08:29:42;;;;;;;2.30;1.10;;;;;;;;;;5058258;28;20238;-81
2021/05/27 08:32:11;;;;;;;1.20;1.10;;;;;;;;;;5090675;28;20198;-82
2021/05/27 08:34:39;;;;;;;1.80;1.10;;;;;;;;;;5069175;28;20212;-84
2021/05/27 08:37:08;;;;;;;1.80;1.10;;;;;;;;;;5090828;28;20202;-81
2021/05/27 08:39:36;;;;;;;1.60;1.00;;;;;;;;;;5076208;28;20217;-85
2021/05/27 08:42:04;;;;;;;3.33;1.40;;;;;;;;;;5087100;28;20653;-83
2021/05/27 08:44:33;;;;;;;1.40;1.20;;;;;;;;;;5079813;28;20213;-83
2021/05/27 08:47:04;;;;;;;1.90;1.17;;;;;;;;;;5059920;28;20570;-81
2021/05/27 08:49:35;;;;;;;2.40;1.10;;;;;;;;;;5083843;28;20233;-82
2021/05/27 08:52:04;;;;;;;4.90;1.30;;;;;;;;;;5084898;28;20202;-81
2021/05/27 08:54:32;;;;;;;3.03;1.30;;;;;;;;;;5080721;28;20217;-82
2021/05/27 08:57:02;;;;;;;1.30;1.20;;;;;;;;;;5064028;28;20201;-85
2021/05/27 08:59:30;;;;;;;2.57;1.27;;;;;;;;;;5071789;28;20585;-81
2021/05/27 09:02:02;;;;;;;3.53;1.30;;;;;;;;;;5068024;28;20209;-82
2021/05/27 09:04:33;;;;;;;1.80;1.00;;;;;;;;;;5083403;28;20210;-81
2021/05/27 09:07:03;;;;;;;1.30;1.20;;;;;;;;;;5055601;28;20210;-81
2021/05/27 09:09:53;;;;;;;1.67;1.23;;;;;;;;;;5068854;28;20233;-81
2021/05/27 09:12:25;;;;;;;2.40;1.30;;;;;;;;;;5080217;28;20232;-85
2021/05/27 09:14:54;;;;;;;0.97;0.97;;;;;;;;;;5083316;28;20209;-82
2021/05/27 09:17:22;;;;;;;2.37;1.10;;;;;;;;;;5079523;28;20237;-82
2021/05/27 09:20:14;;;;;;;1.40;1.30;;;;;;;;;;5083035;28;20226;-81
2021/05/27 09:22:43;;;;;;;1.63;1.20;;;;;;;;;;5072924;28;20667;-82
2021/05/27 09:25:26;;;;;;;2.87;1.20;;;;;;;;;;5067196;28;20209;-82
2021/05/27 09:27:55;;;;;;;1.37;1.27;;;;;;;;;;5075317;28;20756;-82
2021/05/27 09:30:24;;;;;;;2.33;1.10;;;;;;;;;;5075908;28;20237;-85
2021/05/27 09:33:10;;;;;;;5.60;1.20;;;;;;;;;;5064596;28;20241;-81
2021/05/27 09:35:39;;;;;;;1.10;1.00;;;;;;;;;;5083549;28;20194;-82
2021/05/27 09:38:08;;;;;;;1.10;1.00;;;;;;;;;;5089961;28;20837;-82
2021/05/27 09:40:39;;;;;;;1.97;1.37;;;;;;;;;;5070790;28;20222;-83
2021/05/27 09:43:09;;;;;;;2.10;1.60;;;;;;;;;;5060288;28;20596;-81
2021/05/27 09:45:40;;;;;;;2.63;1.70;;;;;;;;;;5083861;28;20564;-82
2021/05/27 09:48:19;;;;;;;2.23;1.40;;;;;;;;;;5080930;28;20213;-84
2021/05/27 09:50:49;;;;;;;4.07;1.00;;;;;;;;;;5057855;28;20226;-84
2021/05/27 09:53:19;;;;;;;1.47;1.10;;;;;;;;;;5069082;28;20217;-82
2021/05/27 09:55:47;;;;;;;1.53;1.40;;;;;;;;;;5085575;28;20217;-82
2021/05/27 09:58:17;;;;;;;1.37;1.10;;;;;;;;;;5067996;28;20206;-82
2021/05/27 10:00:47;;;;;;;1.53;1.23;;;;;;;;;;5078432;28;20707;-81
2021/05/27 10:03:29;;;;;;;1.20;1.10;;;;;;;;;;5084005;28;20206;-80
2021/05/27 10:06:00;;;;;;;1.30;1.20;;;;;;;;;;5058448;28;20578;-80
2021/05/27 10:08:30;;;;;;;1.50;1.20;;;;;;;;;;5078322;28;20205;-84
2021/05/27 10:11:07;;;;;;;1.73;1.20;;;;;;;;;;5068164;28;20198;-80
2021/05/27 10:13:35;;;;;;;1.97;1.20;;;;;;;;;;5064515;28;20217;-80
2021/05/27 10:16:03;;;;;;;4.10;1.30;;;;;;;;;;5079686;28;20679;-79
2021/05/27 10:18:32;;;;;;;2.80;1.40;;;;;;;;;;5083469;28;20210;-80
2021/05/27 10:21:04;;;;;;;1.30;1.10;;;;;;;;;;5058732;28;20230;-80
2021/05/27 10:23:32;;;;;;;1.53;1.23;;;;;;;;;;5086561;28;20202;-81
2021/05/27 10:26:00;;;;;;;3.50;1.10;;;;;;;;;;5084389;28;20222;-80
2021/05/27 10:28:29;;;;;;;1.20;1.10;;;;;;;;;;5064284;28;20213;-80
2021/05/27 10:30:57;;;;;;;1.43;1.20;;;;;;;;;;5077651;28;20237;-81
2021/05/27 10:33:26;;;;;;;2.77;1.10;;;;;;;;;;5076678;28;20210;-81
2021/05/27 10:35:56;;;;;;;1.90;1.10;;;;;;;;;;5060701;28;20217;-81
2021/05/27 10:38:59;;;;;;;3.07;1.43;;;;;;;;;;5066019;28;20210;-81
2021/05/27 10:41:52;;;;;;;1.90;1.70;;;;;;;;;;5082611;28;20608;-81
2021/05/27 10:44:20;;;;;;;1.63;1.50;;;;;;;;;;5063629;28;20803;-83
2021/05/27 10:47:17;;;;;;;3.17;1.20;;;;;;;;;;5067351;28;20205;-81
2021/05/27 10:49:56;;;;;;;1.40;1.30;;;;;;;;;;5092453;28;20305;-81
2021/05/27 10:52:44;;;;;;;1.83;1.10;;;;;;;;;;5083484;28;20203;-80
2021/05/27 10:55:57;;;;;;;1.30;1.20;;;;;;;;;;5080508;28;20218;-80
2021/05/27 10:59:10;;;;;;;1.03;0.93;;;;;;;;;;5085521;28;20202;-80
2021/05/27 11:01:55;;;;;;;1.17;1.17;;;;;;;;;;5046013;28;20206;-81
2021/05/27 11:04:26;;;;;;;1.20;1.10;;;;;;;;;;5088740;28;20499;-83
2021/05/27 11:07:29;;;;;;;1.20;1.10;;;;;;;;;;5069695;28;20221;-81
2021/05/27 11:09:58;;;;;;;1.47;1.00;;;;;;;;;;5064225;28;20287;-80
2021/05/27 11:12:32;;;;;;;1.40;1.30;;;;;;;;;;5060798;28;20206;-80
2021/05/27 11:15:10;;;;;;;1.30;1.20;;;;;;;;;;5085113;28;20217;-82
2021/05/27 11:17:39;;;;;;;3.07;1.20;;;;;;;;;;5082695;28;20533;-81
2021/05/27 11:20:13;;;;;;;1.20;1.10;;;;;;;;;;5086004;28;20629;-80
2021/05/27 11:23:03;;;;;;;2.00;1.37;;;;;;;;;;5087179;28;20202;-81
2021/05/27 11:25:35;;;;;;;1.10;1.10;;;;;;;;;;5082017;28;20249;-80
2021/05/27 11:28:23;;;;;;;1.40;1.30;;;;;;;;;;5078942;28;20672;-80
2021/05/27 11:30:57;;;;;;;3.10;1.40;;;;;;;;;;5065708;28;20252;-83
2021/05/27 11:33:31;;;;;;;2.53;1.30;;;;;;;;;;5091811;28;20211;-83
2021/05/27 11:36:02;;;;;;;1.23;1.13;;;;;;;;;;5100552;28;20202;-80
2021/05/27 11:38:34;;;;;;;1.20;1.10;;;;;;;;;;5074907;28;20285;-80
2021/05/27 11:41:05;;;;;;;1.40;1.30;;;;;;;;;;5080957;28;20221;-83
2021/05/27 11:43:34;;;;;;;1.40;1.10;;;;;;;;;;5076567;28;20214;-82
2021/05/27 11:46:06;;;;;;;2.80;1.57;;;;;;;;;;5081435;28;20225;-83
2021/05/27 11:48:39;;;;;;;1.67;1.43;;;;;;;;;;5079718;28;20210;-80
2021/05/27 11:51:11;;;;;;;2.60;1.40;;;;;;;;;;5067834;28;20215;-80
2021/05/27 11:53:46;;;;;;;1.50;1.40;;;;;;;;;;5075116;28;20203;-80
2021/05/27 11:56:36;;;;;;;1.93;1.57;;;;;;;;;;5062935;28;20202;-80
2021/05/27 11:59:10;;;;;;;1.40;1.30;;;;;;;;;;5055836;28;20250;-79
2021/05/27 12:01:38;;;;;;;1.73;1.40;;;;;;;;;;5074328;28;20206;-81
2021/05/27 12:04:13;;;;;;;1.37;1.13;;;;;;;;;;5069140;28;20207;-79
2021/05/27 12:06:50;;;;;;;2.40;1.30;;;;;;;;;;5079156;28;20213;-79
2021/05/27 12:09:23;;;;;;;1.77;1.33;;;;;;;;;;5059902;28;20218;-79
2021/05/27 12:11:51;;;;;;;1.20;1.10;;;;;;;;;;5073560;28;20257;-83
2021/05/27 12:14:20;;;;;;;1.40;1.30;;;;;;;;;;5052216;28;20198;-80
2021/05/27 12:16:49;;;;;;;3.53;1.23;;;;;;;;;;5076677;28;20203;-79
2021/05/27 12:19:18;;;;;;;1.67;1.20;;;;;;;;;;5061179;28;20221;-79
2021/05/27 12:24:37;;;;;;;2.37;1.50;;;;;;;;;;4986275;28;20228;-96
2021/05/27 12:27:05;;;;;;;1.37;1.27;;;;;;;;;;5016588;28;20189;-92
2021/05/27 12:29:35;;;;;;;2.77;1.30;;;;;;;;;;5011497;28;20189;-93
2021/05/27 12:32:07;;;;;;;1.47;1.37;;;;;;;;;;4997211;28;20219;-93
2021/05/27 12:34:40;;;;;;;1.40;1.30;;;;;;;;;;4994479;28;20221;-94
2021/05/27 12:37:09;;;;;;;3.90;1.10;;;;;;;;;;4995080;28;20198;-93
2021/05/27 12:39:39;;;;;;;1.60;1.50;;;;;;;;;;5005068;28;20209;-92
2021/05/27 12:42:09;;;;;;;1.50;1.40;;;;;;;;;;4992222;28;20177;-94
2021/05/27 12:44:55;;;;;;;2.03;1.40;;;;;;;;;;5008730;28;20228;-94
2021/05/27 12:47:24;;;;;;;2.17;1.50;;;;;;;;;;5025134;28;20226;-79
2021/05/27 12:49:53;;;;;;;1.90;1.80;;;;;;;;;;5013406;28;20225;-82
2021/05/27 12:52:38;;;;;;;2.00;1.87;;;;;;;;;;5004717;28;20237;-79
2021/05/27 12:55:08;;;;;;;2.07;1.63;;;;;;;;;;5017825;28;20209;-79
2021/05/27 12:57:50;;;;;;;1.92;1.80;;;;;;;;;;5006143;28;20545;-79
2021/05/27 13:00:19;;;;;;;1.92;1.60;;;;;;;;;;5024130;28;20232;-80
2021/05/27 13:03:05;;;;;;;1.70;1.60;;;;;;;;;;4988485;28;20212;-79
2021/05/27 13:05:34;;;;;;;2.00;1.65;;;;;;;;;;5003556;28;20201;-79
2021/05/27 13:08:04;;;;;;;1.70;1.60;;;;;;;;;;5008327;28;20215;-79
2021/05/27 13:10:33;;;;;;;1.85;1.70;;;;;;;;;;5006899;28;20243;-79
2021/05/27 13:13:03;;;;;;;1.55;1.45;;;;;;;;;;5008007;28;20212;-80
2021/05/27 13:15:40;;;;;;;1.95;1.77;;;;;;;;;;5024313;28;20205;-79
2021/05/27 13:18:09;;;;;;;1.88;1.77;;;;;;;;;;4991824;28;20547;-79
2021/05/27 13:20:56;;;;;;;2.13;1.90;;;;;;;;;;5025020;28;20244;-79
2021/05/27 13:23:27;;;;;;;2.05;1.88;;;;;;;;;;5008763;28;20208;-80
2021/05/27 13:26:08;;;;;;;1.85;1.67;;;;;;;;;;5009432;28;20727;-79
2021/05/27 13:28:36;;;;;;;2.08;1.67;;;;;;;;;;5006718;28;20212;-79
2021/05/27 13:31:04;;;;;;;2.05;1.88;;;;;;;;;;5008021;28;20225;-79
2021/05/27 13:33:32;;;;;;;1.52;1.42;;;;;;;;;;5008878;28;20209;-80
2021/05/27 13:36:02;;;;;;;2.13;1.52;;;;;;;;;;5023155;28;20216;-80
2021/05/27 13:38:32;;;;;;;1.50;1.40;;;;;;;;;;5023523;28;20232;-80
2021/05/27 13:41:01;;;;;;;2.08;1.88;;;;;;;;;;5015643;28;20216;-80
2021/05/27 13:43:34;;;;;;;1.73;1.60;;;;;;;;;;5008095;28;20213;-80
2021/05/27 13:46:05;;;;;;;2.45;2.20;;;;;;;;;;5021302;28;20225;-80
2021/05/27 13:51:42;;;;;;;1.88;1.77;;;;;;;;;;5004050;28;20237;-83
2021/05/27 13:54:13;;;;;;;1.70;1.60;;;;;;;;;;4996137;28;20697;-79
2021/05/27 13:56:41;;;;;;;1.60;1.50;;;;;;;;;;5008648;28;20216;-80
2021/05/27 13:59:09;;;;;;;1.90;1.40;;;;;;;;;;5003986;28;20694;-80
2021/05/27 14:01:38;;;;;;;1.60;1.50;;;;;;;;;;5012307;28;20209;-80
2021/05/27 14:04:08;;;;;;;1.40;1.30;;;;;;;;;;5016066;28;20193;-80
2021/05/27 14:06:37;;;;;;;1.55;1.45;;;;;;;;;;5011878;28;20670;-80
2021/05/27 14:09:09;;;;;;;1.67;1.30;;;;;;;;;;5009518;28;20225;-80
2021/05/27 14:11:38;;;;;;;1.88;1.58;;;;;;;;;;5012970;28;20225;-80
2021/05/27 14:14:07;;;;;;;2.15;1.25;;;;;;;;;;5008412;28;20201;-80
2021/05/27 14:16:36;;;;;;;3.00;1.77;;;;;;;;;;5008242;28;20197;-80
2021/05/27 14:19:05;;;;;;;1.88;1.70;;;;;;;;;;5005562;28;20229;-80
2021/05/27 14:21:33;;;;;;;1.58;1.33;;;;;;;;;;5008621;28;20201;-79
2021/05/27 14:24:02;;;;;;;3.30;1.55;;;;;;;;;;4997033;28;20204;-79
2021/05/27 14:26:31;;;;;;;1.48;1.30;;;;;;;;;;5011759;28;20599;-79
2021/05/27 14:29:08;;;;;;;1.88;1.60;;;;;;;;;;5013586;28;20227;-80
2021/05/27 14:31:36;;;;;;;1.50;1.40;;;;;;;;;;5004531;28;20228;-80
2021/05/27 14:34:04;;;;;;;1.40;1.30;;;;;;;;;;5021477;28;20204;-80
2021/05/27 14:36:33;;;;;;;1.40;1.30;;;;;;;;;;5001921;28;20224;-79
2021/05/27 14:39:01;;;;;;;1.40;1.30;;;;;;;;;;5011410;28;20231;-79
2021/05/27 14:41:29;;;;;;;1.98;1.40;;;;;;;;;;5007978;28;20205;-79
2021/05/27 14:43:58;;;;;;;3.70;1.73;;;;;;;;;;5002303;28;20197;-80
2021/05/27 14:46:26;;;;;;;1.98;1.75;;;;;;;;;;5021460;28;20585;-80
2021/05/27 14:48:54;;;;;;;1.98;1.50;;;;;;;;;;5009875;28;20208;-81
2021/05/27 14:51:22;;;;;;;1.65;1.52;;;;;;;;;;4989425;28;20205;-80
2021/05/27 14:53:50;;;;;;;1.63;1.27;;;;;;;;;;5007181;28;20212;-79
2021/05/27 14:56:18;;;;;;;1.58;1.20;;;;;;;;;;5021645;28;20193;-80
2021/05/27 14:58:47;;;;;;;2.03;1.33;;;;;;;;;;5007385;28;20201;-79
2021/05/27 15:01:15;;;;;;;1.63;1.50;;;;;;;;;;5023168;28;20212;-79
2021/05/27 15:03:43;;;;;;;1.13;1.10;;;;;;;;;;5020358;28;20217;-79
2021/05/27 15:06:13;;;;;;;1.98;1.50;;;;;;;;;;5038598;28;20355;-78
2021/05/27 15:08:41;;;;;;;1.40;1.27;;;;;;;;;;5009180;28;20662;-80
2021/05/27 15:11:09;;;;;;;1.67;1.23;;;;;;;;;;5007315;28;20205;-80
2021/05/27 15:13:37;;;;;;;1.50;1.40;;;;;;;;;;5013983;28;20227;-81
2021/05/27 15:16:05;;;;;;;1.60;1.50;;;;;;;;;;5031542;28;20211;-82
2021/05/27 15:18:35;;;;;;;1.30;1.20;;;;;;;;;;5008862;28;20208;-80
2021/05/27 15:21:05;;;;;;;1.95;1.30;;;;;;;;;;5009860;28;20221;-81
2021/05/27 15:23:33;;;;;;;2.35;1.60;;;;;;;;;;5030802;28;20201;-80